createdAt,value
2019-02-14T00:01:46.187Z,15.40
2019-02-14T00:04:14.376Z,15.63
2019-02-14T00:06:42.539Z,15.77
2019-02-14T00:09:10.670Z,15.17
2019-02-14T00:11:38.846Z,15.57
2019-02-14T00:14:06.996Z,16.23
2019-02-14T00:16:35.205Z,15.90
2019-02-14T00:19:03.513Z,15.87
2019-02-14T00:21:31.662Z,16.53
2019-02-14T00:23:59.810Z,15.97
2019-02-14T00:26:27.996Z,16.43
2019-02-14T00:28:56.150Z,16.03
2019-02-14T00:31:24.297Z,16.07
2019-02-14T00:33:52.529Z,15.93
2019-02-14T00:36:20.677Z,16.33
2019-02-14T00:38:48.829Z,15.20
2019-02-14T00:44:07.164Z,16.20
2019-02-14T00:49:31.929Z,16.73
2019-02-14T00:52:00.103Z,16.50
2019-02-14T00:54:28.253Z,16.20
2019-02-14T00:56:56.542Z,16.20
2019-02-14T00:59:24.723Z,15.70
2019-02-14T01:01:52.882Z,15.43
2019-02-14T01:04:21.023Z,14.97
2019-02-14T01:06:50.640Z,15.47
2019-02-14T01:09:18.858Z,16.37
2019-02-14T01:11:47.049Z,15.80
2019-02-14T01:14:15.306Z,16.27
2019-02-14T01:16:44.328Z,15.27
2019-02-14T01:19:12.778Z,15.40
2019-02-14T01:21:40.972Z,15.93
2019-02-14T01:24:10.046Z,16.97
2019-02-14T01:26:38.198Z,16.87
2019-02-14T01:29:06.362Z,17.03
2019-02-14T01:31:34.518Z,14.73
2019-02-14T01:34:02.741Z,17.07
2019-02-14T01:36:31.275Z,16.67
2019-02-14T01:38:59.421Z,16.93
2019-02-14T01:41:27.573Z,15.67
2019-02-14T01:43:55.877Z,15.50
2019-02-14T01:46:24.029Z,16.40
2019-02-14T01:48:52.417Z,16.77
2019-02-14T01:51:21.407Z,16.97
2019-02-14T01:53:57.245Z,16.23
2019-02-14T01:56:31.510Z,16.43
2019-02-14T01:59:00.828Z,16.37
2019-02-14T02:01:28.982Z,15.97
2019-02-14T02:03:57.211Z,15.97
2019-02-14T02:06:25.500Z,17.03
2019-02-14T02:08:55.707Z,16.23
2019-02-14T02:11:48.173Z,16.70
2019-02-14T02:14:16.422Z,17.77
2019-02-14T02:16:45.795Z,18.13
2019-02-14T02:19:14.015Z,16.37
2019-02-14T02:21:42.162Z,17.33
2019-02-14T02:24:10.355Z,17.57
2019-02-14T02:26:38.692Z,16.87
2019-02-14T02:29:06.788Z,17.03
2019-02-14T02:31:34.985Z,16.43
2019-02-14T02:34:03.504Z,16.50
2019-02-14T02:36:40.157Z,16.53
2019-02-14T02:39:08.723Z,16.13
2019-02-14T02:41:37.758Z,16.83
2019-02-14T02:44:05.904Z,17.40
2019-02-14T02:46:34.075Z,17.00
2019-02-14T02:49:02.445Z,18.27
2019-02-14T02:51:30.589Z,18.17
2019-02-14T02:54:00.151Z,19.67
2019-02-14T02:56:28.440Z,19.57
2019-02-14T02:58:56.807Z,17.57
2019-02-14T03:01:24.993Z,17.40
2019-02-14T03:03:53.423Z,18.17
2019-02-14T03:06:33.524Z,17.27
2019-02-14T03:09:10.094Z,17.57
2019-02-14T03:11:45.616Z,17.03
2019-02-14T03:14:17.329Z,19.83
2019-02-14T03:16:46.967Z,17.63
2019-02-14T03:19:19.585Z,18.47
2019-02-14T03:21:50.541Z,19.37
2019-02-14T03:24:19.450Z,17.63
2019-02-14T03:27:00.551Z,17.00
2019-02-14T03:29:34.157Z,17.73
2019-02-14T03:32:08.072Z,18.37
2019-02-14T03:34:36.248Z,18.10
2019-02-14T03:37:04.411Z,17.63
2019-02-14T03:39:32.710Z,18.37
2019-02-14T03:42:02.522Z,18.73
2019-02-14T03:44:33.495Z,18.20
2019-02-14T03:47:01.635Z,18.40
2019-02-14T03:49:29.849Z,18.00
2019-02-14T03:51:58.028Z,17.17
2019-02-14T03:54:26.161Z,19.23
2019-02-14T03:56:54.345Z,16.77
2019-02-14T03:59:22.501Z,18.57
2019-02-14T04:01:50.689Z,17.30
2019-02-14T04:04:18.877Z,17.53
2019-02-14T04:06:47.042Z,16.93
2019-02-14T04:09:15.217Z,17.63
2019-02-14T04:11:46.552Z,16.93
2019-02-14T04:14:14.425Z,17.33
2019-02-14T04:16:45.983Z,16.57
2019-02-14T04:19:14.306Z,17.67
2019-02-14T04:21:42.588Z,17.67
2019-02-14T04:24:10.825Z,17.43
2019-02-14T04:26:39.008Z,17.50
2019-02-14T04:29:08.799Z,17.73
2019-02-14T04:31:36.988Z,17.37
2019-02-14T04:34:05.156Z,17.47
2019-02-14T04:36:36.105Z,17.50
2019-02-14T04:39:05.095Z,17.27
2019-02-14T04:41:33.272Z,17.40
2019-02-14T04:44:01.420Z,18.20
2019-02-14T04:46:29.573Z,17.83
2019-02-14T04:48:57.757Z,17.83
2019-02-14T04:51:47.259Z,17.40
2019-02-14T04:54:15.449Z,17.93
2019-02-14T04:56:43.598Z,17.83
2019-02-14T04:59:11.751Z,17.57
2019-02-14T05:01:39.944Z,17.20
2019-02-14T05:04:08.100Z,17.23
2019-02-14T05:06:44.086Z,16.83
2019-02-14T05:09:07.963Z,17.47
2019-02-14T05:11:36.221Z,16.70
2019-02-14T05:14:04.370Z,16.60
2019-02-14T05:16:32.558Z,17.00
2019-02-14T05:19:00.702Z,16.87
2019-02-14T05:21:28.855Z,15.40
2019-02-14T05:23:57.706Z,17.47
2019-02-14T05:26:26.011Z,15.73
2019-02-14T05:28:54.157Z,15.87
2019-02-14T05:31:22.481Z,16.07
2019-02-14T05:33:51.592Z,15.73
2019-02-14T05:36:25.843Z,15.70
2019-02-14T05:38:55.646Z,15.13
2019-02-14T05:41:23.803Z,16.20
2019-02-14T05:43:51.998Z,15.80
2019-02-14T05:46:20.186Z,15.63
2019-02-14T05:48:48.895Z,15.93
2019-02-14T05:51:17.369Z,15.60
2019-02-14T05:53:45.544Z,17.43
2019-02-14T05:56:13.833Z,16.43
2019-02-14T05:58:43.092Z,13.73
2019-02-14T06:01:12.843Z,15.57
2019-02-14T06:03:41.599Z,14.90
2019-02-14T06:06:09.769Z,14.03
2019-02-14T06:08:37.937Z,14.70
2019-02-14T06:11:06.083Z,14.30
2019-02-14T06:13:36.802Z,13.57
2019-02-14T06:16:16.432Z,13.60
2019-02-14T06:18:46.337Z,14.73
2019-02-14T06:21:19.996Z,14.87
2019-02-14T06:23:52.875Z,14.20
2019-02-14T06:26:25.252Z,15.23
2019-02-14T06:28:53.519Z,15.10
2019-02-14T06:31:32.007Z,14.27
2019-02-14T06:34:02.449Z,15.73
2019-02-14T06:36:30.598Z,14.10
2019-02-14T06:39:02.433Z,14.83
2019-02-14T06:41:33.710Z,14.33
2019-02-14T06:44:07.285Z,15.10
2019-02-14T06:46:39.711Z,14.33
2019-02-14T06:49:21.147Z,13.70
2019-02-14T06:51:46.581Z,18.98
2019-02-14T06:54:14.772Z,17.10
2019-02-14T06:56:42.926Z,15.60
2019-02-14T06:59:11.078Z,14.87
2019-02-14T07:01:39.585Z,14.37
2019-02-14T07:04:07.725Z,15.10
2019-02-14T07:06:35.872Z,15.13
2019-02-14T07:09:05.149Z,15.93
2019-02-14T07:11:33.323Z,15.60
2019-02-14T07:14:01.536Z,15.63
2019-02-14T07:16:29.732Z,15.37
2019-02-14T07:18:57.876Z,15.87
2019-02-14T07:21:26.016Z,16.83
2019-02-14T07:23:54.536Z,16.73
2019-02-14T07:26:22.692Z,14.50
2019-02-14T07:28:50.832Z,14.93
2019-02-14T07:31:19.025Z,15.13
2019-02-14T07:33:47.181Z,15.57
2019-02-14T07:36:15.353Z,15.17
2019-02-14T07:38:43.533Z,14.70
2019-02-14T07:41:11.689Z,16.03
2019-02-14T07:43:39.854Z,14.77
2019-02-14T07:46:08.059Z,15.83
2019-02-14T07:48:36.204Z,15.97
2019-02-14T07:51:04.354Z,15.10
2019-02-14T07:53:32.727Z,15.03
2019-02-14T07:56:00.872Z,15.33
2019-02-14T07:58:29.020Z,15.37
2019-02-14T08:00:58.854Z,17.48
2019-02-14T08:03:27.004Z,16.33
2019-02-14T08:05:56.099Z,15.00
2019-02-14T08:08:24.282Z,16.07
2019-02-14T08:10:52.819Z,15.50
2019-02-14T08:13:20.970Z,15.57
2019-02-14T08:15:51.051Z,16.47
2019-02-14T08:18:19.621Z,15.33
2019-02-14T08:20:49.521Z,15.80
2019-02-14T08:23:21.578Z,16.43
2019-02-14T08:25:50.455Z,15.67
2019-02-14T08:28:19.758Z,16.13
2019-02-14T08:30:48.800Z,16.63
2019-02-14T08:33:16.943Z,15.70
2019-02-14T08:35:45.194Z,14.03
2019-02-14T08:38:13.365Z,15.57
2019-02-14T08:40:41.512Z,15.07
2019-02-14T08:43:09.724Z,15.10
2019-02-14T08:45:37.897Z,15.87
2019-02-14T08:48:06.106Z,13.32
2019-02-14T08:50:34.258Z,14.07
2019-02-14T08:53:02.476Z,13.17
2019-02-14T08:55:30.617Z,13.33
2019-02-14T08:58:13.985Z,13.63
2019-02-14T09:00:29.855Z,13.70
2019-02-14T09:02:58.011Z,15.47
2019-02-14T09:05:26.162Z,15.03
2019-02-14T09:07:55.139Z,14.17
2019-02-14T09:10:23.422Z,14.70
2019-02-14T09:12:51.590Z,14.60
2019-02-14T09:15:19.787Z,14.37
2019-02-14T09:17:47.940Z,15.47
2019-02-14T09:20:19.927Z,14.53
2019-02-14T09:22:48.245Z,14.23
2019-02-14T09:25:16.385Z,13.43
2019-02-14T09:27:44.909Z,14.17
2019-02-14T09:30:18.606Z,14.47
2019-02-14T09:32:46.916Z,14.23
2019-02-14T09:35:15.064Z,14.67
2019-02-14T09:37:43.246Z,13.67
2019-02-14T09:40:15.986Z,12.67
2019-02-14T09:42:44.149Z,13.27
2019-02-14T09:48:09.874Z,12.77
2019-02-14T09:50:40.081Z,13.00
2019-02-14T09:53:13.804Z,13.13
2019-02-14T09:55:42.914Z,13.13
2019-02-14T09:58:16.141Z,12.83
2019-02-14T10:00:59.336Z,13.10
2019-02-14T10:03:34.825Z,13.13
2019-02-14T10:06:03.263Z,13.20
2019-02-14T10:08:32.026Z,14.17
2019-02-14T10:11:01.704Z,13.57
2019-02-14T10:13:34.434Z,12.77
2019-02-14T10:16:06.621Z,13.30
2019-02-14T10:18:35.767Z,13.83
2019-02-14T10:21:09.357Z,14.00
2019-02-14T10:23:46.988Z,13.47
2019-02-14T10:26:18.640Z,13.60
2019-02-14T10:28:48.569Z,14.47
2019-02-14T10:31:22.398Z,13.87
2019-02-14T10:33:50.234Z,13.73
2019-02-14T10:36:21.929Z,13.77
2019-02-14T10:38:50.085Z,14.13
2019-02-14T10:41:18.245Z,13.00
2019-02-14T10:43:51.338Z,12.77
2019-02-14T10:46:25.540Z,12.27
2019-02-14T10:48:53.682Z,13.50
2019-02-14T10:51:21.830Z,12.63
2019-02-14T10:53:53.351Z,12.67
2019-02-14T10:56:21.502Z,11.63
2019-02-14T10:58:49.657Z,11.30
2019-02-14T11:01:20.343Z,12.30
2019-02-14T11:03:51.369Z,12.90
2019-02-14T11:06:24.887Z,11.83
2019-02-14T11:08:57.545Z,11.43
2019-02-14T11:11:27.273Z,11.03
2019-02-14T11:13:58.982Z,12.43
2019-02-14T11:19:30.809Z,12.82
2019-02-14T11:22:13.104Z,13.47
2019-02-14T11:24:45.369Z,11.60
2019-02-14T11:27:27.261Z,10.93
2019-02-14T11:30:02.943Z,10.90
2019-02-14T11:32:31.629Z,11.50
2019-02-14T11:34:59.820Z,10.87
2019-02-14T11:37:28.025Z,11.40
2019-02-14T11:39:56.188Z,10.50
2019-02-14T11:42:24.370Z,11.57
2019-02-14T11:44:52.527Z,10.37
2019-02-14T11:47:23.908Z,10.67
2019-02-14T11:52:56.624Z,9.87
2019-02-14T11:55:22.263Z,10.03
2019-02-14T11:57:54.565Z,10.20
2019-02-14T12:00:37.018Z,10.00
2019-02-14T12:03:42.470Z,10.10
2019-02-14T12:05:58.264Z,8.70
2019-02-14T12:08:53.106Z,9.07
2019-02-14T12:11:18.863Z,9.07
2019-02-14T12:16:38.931Z,8.23
2019-02-14T12:19:10.321Z,8.97
2019-02-14T12:21:41.229Z,8.70
2019-02-14T12:24:09.496Z,8.67
2019-02-14T12:26:37.937Z,9.33
2019-02-14T12:29:07.717Z,8.93
2019-02-14T12:31:39.888Z,8.90
2019-02-14T12:34:11.568Z,9.07
2019-02-14T12:36:45.956Z,9.30
2019-02-14T12:39:16.218Z,10.07
2019-02-14T12:41:46.030Z,11.00
2019-02-14T12:44:17.296Z,12.27
2019-02-14T12:46:45.435Z,11.07
2019-02-14T12:49:13.727Z,10.83
2019-02-14T12:51:41.899Z,11.67
2019-02-14T12:54:10.170Z,12.20
2019-02-14T12:56:38.321Z,11.40
2019-02-14T12:59:06.510Z,10.70
2019-02-14T13:01:35.635Z,10.83
2019-02-14T13:06:57.077Z,10.83
2019-02-14T13:09:27.476Z,10.03
2019-02-14T13:11:55.629Z,10.50
2019-02-14T13:14:23.949Z,10.00
2019-02-14T13:16:52.248Z,10.03
2019-02-14T13:19:20.401Z,11.37
2019-02-14T13:21:48.579Z,10.57
2019-02-14T13:24:16.733Z,11.37
2019-02-14T13:26:46.414Z,11.00
2019-02-14T13:29:23.752Z,10.90
2019-02-14T13:31:51.298Z,10.87
2019-02-14T13:34:33.260Z,10.90
2019-02-14T13:37:01.341Z,11.03
2019-02-14T13:42:20.215Z,10.60
2019-02-14T13:44:52.625Z,10.03
2019-02-14T13:47:40.354Z,9.90
2019-02-14T13:50:10.876Z,10.23
2019-02-14T13:52:42.553Z,11.23
2019-02-14T13:58:07.585Z,11.40
2019-02-14T14:00:45.939Z,10.60
2019-02-14T14:03:13.965Z,10.17
2019-02-14T14:05:42.127Z,10.20
2019-02-14T14:08:14.435Z,10.93
2019-02-14T14:10:42.621Z,11.53
2019-02-14T14:13:24.774Z,10.60
2019-02-14T14:15:54.902Z,11.47
2019-02-14T14:18:23.110Z,10.97
2019-02-14T14:20:52.960Z,10.43
2019-02-14T14:23:21.073Z,9.43
2019-02-14T14:25:49.925Z,10.33
2019-02-14T14:28:31.438Z,8.93
2019-02-14T14:30:59.577Z,10.43
2019-02-14T14:33:27.726Z,9.40
2019-02-14T14:35:55.905Z,10.07
2019-02-14T14:38:24.098Z,9.63
2019-02-14T14:40:52.241Z,8.90
2019-02-14T14:43:36.351Z,9.30
2019-02-14T14:45:58.480Z,9.97
2019-02-14T14:48:28.972Z,9.60
2019-02-14T14:50:59.740Z,9.80
2019-02-14T14:53:29.105Z,9.60
2019-02-14T14:56:03.202Z,9.83
2019-02-14T14:58:31.463Z,10.07
2019-02-14T15:01:08.299Z,9.37
2019-02-14T15:03:40.607Z,10.13
2019-02-14T15:06:08.408Z,9.93
2019-02-14T15:08:38.015Z,11.23
2019-02-14T15:11:07.818Z,10.43
2019-02-14T15:13:35.969Z,10.90
2019-02-14T15:16:04.263Z,10.57
2019-02-14T15:18:32.449Z,11.00
2019-02-14T15:21:02.281Z,10.97
2019-02-14T15:23:31.550Z,10.30
2019-02-14T15:26:04.252Z,10.87
2019-02-14T15:28:34.759Z,11.40
2019-02-14T15:31:05.785Z,11.73
2019-02-14T15:33:38.292Z,11.70
2019-02-14T15:36:12.429Z,11.13
2019-02-14T15:38:59.042Z,11.17
2019-02-14T15:41:28.989Z,11.50
2019-02-14T15:43:59.070Z,11.20
2019-02-14T15:46:28.611Z,11.50
2019-02-14T15:48:56.810Z,10.03
2019-02-14T15:51:28.364Z,10.90
2019-02-14T15:53:57.117Z,11.90
2019-02-14T15:56:27.198Z,12.17
2019-02-14T15:58:57.424Z,12.30
2019-02-14T16:01:25.066Z,12.03
2019-02-14T16:03:53.213Z,12.67
2019-02-14T16:06:47.348Z,12.20
2019-02-14T16:09:17.828Z,11.93
2019-02-14T16:11:46.088Z,11.40
2019-02-14T16:14:16.339Z,10.93
2019-02-14T16:16:45.381Z,11.57
2019-02-14T16:19:13.851Z,12.13
2019-02-14T16:21:58.730Z,12.17
2019-02-14T16:24:39.159Z,12.70
2019-02-14T16:27:22.535Z,11.30
2019-02-14T16:32:39.644Z,11.03
2019-02-14T16:35:22.808Z,10.20
2019-02-14T16:37:55.082Z,10.63
2019-02-14T16:40:27.992Z,11.07
2019-02-14T16:42:56.921Z,10.70
2019-02-14T16:45:29.581Z,10.57
2019-02-14T16:48:01.866Z,10.73
2019-02-14T16:50:34.521Z,10.80
2019-02-14T16:53:04.333Z,10.93
2019-02-14T16:55:39.563Z,11.07
2019-02-14T16:58:09.608Z,10.93
2019-02-14T17:00:41.349Z,10.70
2019-02-14T17:03:11.440Z,11.63
2019-02-14T17:05:49.101Z,11.30
2019-02-14T17:08:17.438Z,11.40
2019-02-14T17:10:50.507Z,11.93
2019-02-14T17:13:18.701Z,11.90
2019-02-14T17:16:10.747Z,12.77
2019-02-14T17:18:20.067Z,12.40
2019-02-14T17:20:53.156Z,11.47
2019-02-14T17:26:11.293Z,11.33
2019-02-14T17:28:39.438Z,12.60
2019-02-14T17:31:07.864Z,11.87
2019-02-14T17:33:45.991Z,12.07
2019-02-14T17:36:11.751Z,12.00
2019-02-14T17:38:42.371Z,11.77
2019-02-14T17:41:23.437Z,12.50
2019-02-14T17:43:58.673Z,11.63
2019-02-14T17:46:28.858Z,11.47
2019-02-14T17:49:04.702Z,11.40
2019-02-14T17:51:33.874Z,11.50
2019-02-14T17:54:02.094Z,11.30
2019-02-14T17:56:30.272Z,11.50
2019-02-14T17:58:58.467Z,11.67
2019-02-14T18:01:30.638Z,11.23
2019-02-14T18:06:49.793Z,10.53
2019-02-14T18:09:22.027Z,10.90
2019-02-14T18:11:53.395Z,11.27
2019-02-14T18:14:21.624Z,10.13
2019-02-14T18:16:50.934Z,10.30
2019-02-14T18:19:23.023Z,10.57
2019-02-14T18:21:52.262Z,10.10
2019-02-14T18:24:20.661Z,10.03
2019-02-14T18:26:48.856Z,9.77
2019-02-14T18:29:19.246Z,9.97
2019-02-14T18:31:47.404Z,10.07
2019-02-14T18:34:17.264Z,9.20
2019-02-14T18:36:45.423Z,9.33
2019-02-14T18:39:13.713Z,9.43
2019-02-14T18:41:43.788Z,10.10
2019-02-14T18:44:11.943Z,9.73
2019-02-14T18:46:40.086Z,8.77
2019-02-14T18:49:08.399Z,10.23
2019-02-14T18:51:37.712Z,9.87
2019-02-14T18:54:07.793Z,9.00
2019-02-14T18:56:41.802Z,10.17
2019-02-14T18:59:10.558Z,9.83
2019-02-14T19:01:40.866Z,9.60
2019-02-14T19:04:09.726Z,9.97
2019-02-14T19:06:37.861Z,10.10
2019-02-14T19:09:06.072Z,9.57
2019-02-14T19:11:35.255Z,10.27
2019-02-14T19:14:03.509Z,10.07
2019-02-14T19:16:33.659Z,10.23
2019-02-14T19:19:04.001Z,10.67
2019-02-14T19:21:32.122Z,10.10
2019-02-14T19:24:05.723Z,11.47
2019-02-14T19:26:35.541Z,11.03
2019-02-14T19:29:03.685Z,11.17
2019-02-14T19:31:31.825Z,10.63
2019-02-14T19:34:00.130Z,10.13
2019-02-14T19:36:29.156Z,10.60
2019-02-14T19:38:57.317Z,10.17
2019-02-14T19:41:28.285Z,10.63
2019-02-14T19:43:56.555Z,10.67
2019-02-14T19:46:24.703Z,10.23
2019-02-14T19:48:54.590Z,9.77
2019-02-14T19:51:22.715Z,10.80
2019-02-14T19:53:50.937Z,10.80
2019-02-14T19:56:19.421Z,10.50
2019-02-14T19:58:47.567Z,11.37
2019-02-14T20:01:15.721Z,10.90
2019-02-14T20:03:43.893Z,10.53
2019-02-14T20:06:13.682Z,10.83
2019-02-14T20:08:42.182Z,11.07
2019-02-14T20:11:10.356Z,9.90
2019-02-14T20:13:49.129Z,10.60
2019-02-14T20:16:12.139Z,9.47
2019-02-14T20:18:40.300Z,9.47
2019-02-14T20:21:09.501Z,9.97
2019-02-14T20:23:41.175Z,9.53
2019-02-14T20:26:09.617Z,9.80
2019-02-14T20:28:39.120Z,10.00
2019-02-14T20:31:07.348Z,10.37
2019-02-14T20:33:35.527Z,10.38
2019-02-14T20:36:03.977Z,10.00
2019-02-14T20:38:34.872Z,10.73
2019-02-14T20:41:03.047Z,9.93
2019-02-14T20:43:31.197Z,10.63
2019-02-14T20:45:59.388Z,10.33
2019-02-14T20:48:28.278Z,10.37
2019-02-14T20:50:56.772Z,9.63
2019-02-14T20:53:24.926Z,9.33
2019-02-14T20:55:53.236Z,10.37
2019-02-14T20:58:21.387Z,9.93
2019-02-14T21:00:51.181Z,10.83
2019-02-14T21:03:19.439Z,9.60
2019-02-14T21:05:47.673Z,10.13
2019-02-14T21:08:15.817Z,9.87
2019-02-14T21:10:44.843Z,10.07
2019-02-14T21:13:14.232Z,11.37
2019-02-14T21:15:42.437Z,10.23
2019-02-14T21:18:10.606Z,11.10
2019-02-14T21:20:38.749Z,9.87
2019-02-14T21:23:06.944Z,10.57
2019-02-14T21:25:35.087Z,10.10
2019-02-14T21:28:03.300Z,9.93
2019-02-14T21:30:34.979Z,9.63
2019-02-14T21:33:01.242Z,10.07
2019-02-14T21:35:31.037Z,9.97
2019-02-14T21:37:59.286Z,10.40
2019-02-14T21:40:28.286Z,10.93
2019-02-14T21:42:56.445Z,9.90
2019-02-14T21:45:24.582Z,10.37
2019-02-14T21:47:52.762Z,9.63
2019-02-14T21:50:20.908Z,9.23
2019-02-14T21:52:49.056Z,10.70
2019-02-14T21:55:17.417Z,9.60
2019-02-14T21:57:45.837Z,9.87
2019-02-14T22:03:23.153Z,9.73
2019-02-14T22:05:54.269Z,10.10
2019-02-14T22:08:22.444Z,10.30
2019-02-14T22:10:50.932Z,9.97
2019-02-14T22:13:20.222Z,10.10
2019-02-14T22:15:48.812Z,9.57
2019-02-14T22:18:17.896Z,9.80
2019-02-14T22:23:39.981Z,9.37
2019-02-14T22:26:09.809Z,9.50
2019-02-14T22:31:35.171Z,9.73
2019-02-14T22:34:04.209Z,9.23
2019-02-14T22:36:35.863Z,10.13
2019-02-14T22:39:05.913Z,9.10
2019-02-14T22:41:36.137Z,8.97
2019-02-14T22:44:09.577Z,9.03
2019-02-14T22:46:40.659Z,8.77
2019-02-14T22:49:18.365Z,10.40
2019-02-14T22:51:50.201Z,9.33
2019-02-14T22:54:24.743Z,9.23
2019-02-14T22:56:53.417Z,9.50
2019-02-14T22:59:37.845Z,8.97
2019-02-14T23:02:12.219Z,9.23
2019-02-14T23:04:42.487Z,9.07
2019-02-14T23:07:14.526Z,8.90
2019-02-14T23:09:48.640Z,9.57
2019-02-14T23:12:21.845Z,8.67
2019-02-14T23:14:54.713Z,8.80
2019-02-14T23:17:30.747Z,9.00
2019-02-14T23:19:58.913Z,8.37
2019-02-14T23:22:27.059Z,8.77
2019-02-14T23:24:58.873Z,8.50
2019-02-14T23:27:32.220Z,8.10
2019-02-14T23:30:03.230Z,7.80
2019-02-14T23:32:33.437Z,7.77
2019-02-14T23:35:06.008Z,7.87
2019-02-14T23:37:36.065Z,8.17
2019-02-14T23:40:06.497Z,7.90
2019-02-14T23:42:34.660Z,8.07
2019-02-14T23:45:02.800Z,7.73
2019-02-14T23:47:34.199Z,8.47
2019-02-14T23:50:06.147Z,6.97
2019-02-14T23:52:37.268Z,6.90
2019-02-14T23:55:06.481Z,8.20
2019-02-14T23:57:34.652Z,7.63
